Jamestown, ND

5:45 PM CST on February 09, 2016 (GMT -0600)
Leapaldt Addition | | Change Station
CLOSE
Current Station
Personal Weather Station
Location: Jamestown, ND
Elevation: 1486 ft
Nearby Weather Stations
Active Advisory: Special Statement

Elev 1486 ft 46.93 °N, 98.69 °W | Updated 10 minutes ago

Overcast
Overcast
20.1 °F
Feels Like 11 °F
N
7.3
Wind Variable Wind from East

Today
High -- | Low -- °F
--% Chance of Precip.
Yesterday
High -- | Low -- °F
Precip. -- in
Pressure 30.27 in
Visibility 10.0 miles
Clouds Overcast 4600 ft
Windchill 11 °F
Dew Point 12 °F
Humidity 72%
Rainfall 0.00 in
Snow Depth Not available.
7:49 AM 5:49 PM
Waxing Crescent, 3% visible
METAR KJMS 092256Z AUTO 07007KT 10SM OVC046 M06/M12 A3018 RMK AO2 SLP248 T10561122
Pressure 30.27 in
Visibility 10.0 miles
Clouds Overcast 4600 ft
Windchill 11 °F
Dew Point 12 °F
Humidity 72%
Rainfall 0.00 in
Snow Depth Not available.
7:49 AM 5:49 PM
Waxing Crescent, 3% visible
METAR KJMS 092256Z AUTO 07007KT 10SM OVC046 M06/M12 A3018 RMK AO2 SLP248 T10561122

10-Day Weather Forecast

Almanac

Astronomy

Feb. 09, 2016 Rise Set
Actual Time
Civil Twilight
Nautical Twilight
Astronomical Twilight
Moon
Length of Visible Light
Length of Day
Tomorrow will be .
, % of the Moon is Illuminated

Today's Extremes

State Highs State Lows

Community

WunderPhotos

Upload Photos

1,891,744 photos uploaded!

WunderBlog® & News

Nearby

Air Quality

  Air Quality AQ Index Pollutant
Not available.

Snow Depth

Station Depth Elevation

Earthquake Activity

City Distance Mag. Time & Date
Minimum magnitude displayed is 2.5.

Coastal Water Temperatures

Place Temperature

Stations

Nearby Weather Stations

Station Location Temp. Windchill Dew Point Humidity Wind Precip. Elev Updated Type
                   

Watches & Warnings

Special Statement
Issued: 3:46 PM CST Feb. 9, 2016 – National Weather Service

... Accumulating snow likely across the James River Valley tonight
and tomorrow...

Snowfall is expected to begin late tonight and persist through
tomorrow afternoon across the James River Valley. Between 2 and 4
inches of snow is likely along a line from
Rolla and Rugby to Carrington... Jamestown and Ellendale.

Aj


346 PM CST Tue Feb 9 2016

... Accumulating snow likely across the James River Valley tonight
and tomorrow...

Snowfall is expected to begin late tonight and persist through
tomorrow afternoon across the James River Valley. Between 2 and 4
inches of snow is likely along a line from
Rolla and Rugby to Carrington... Jamestown and Ellendale.

Aj


346 PM CST Tue Feb 9 2016

... Accumulating snow likely across the James River Valley tonight
and tomorrow...

Snowfall is expected to begin late tonight and persist through
tomorrow afternoon across the James River Valley. Between 2 and 4
inches of snow is likely along a line from
Rolla and Rugby to Carrington... Jamestown and Ellendale.

Aj